sensor_id;sensor_type;location;lat;lon;timestamp;P1;durP1;ratioP1;P2;durP2;ratioP2
53549;SDS011;73079;52.914;-0.982;2023-12-20T00:00:52;10.85;;;3.35;;
53549;SDS011;73079;52.914;-0.982;2023-12-20T00:03:17;13.75;;;3.50;;
53549;SDS011;73079;52.914;-0.982;2023-12-20T00:05:44;10.57;;;3.00;;
53549;SDS011;73079;52.914;-0.982;2023-12-20T00:08:10;16.90;;;3.95;;
53549;SDS011;73079;52.914;-0.982;2023-12-20T00:10:36;14.65;;;3.53;;
53549;SDS011;73079;52.914;-0.982;2023-12-20T00:13:02;15.73;;;3.40;;
53549;SDS011;73079;52.914;-0.982;2023-12-20T00:15:28;15.75;;;4.22;;
53549;SDS011;73079;52.914;-0.982;2023-12-20T00:17:54;19.77;;;4.03;;
53549;SDS011;73079;52.914;-0.982;2023-12-20T00:20:19;17.55;;;3.63;;
53549;SDS011;73079;52.914;-0.982;2023-12-20T00:22:47;17.42;;;4.05;;
53549;SDS011;73079;52.914;-0.982;2023-12-20T00:25:12;15.82;;;3.63;;
53549;SDS011;73079;52.914;-0.982;2023-12-20T00:27:38;16.85;;;3.95;;
53549;SDS011;73079;52.914;-0.982;2023-12-20T00:30:05;10.30;;;3.92;;
53549;SDS011;73079;52.914;-0.982;2023-12-20T00:32:31;22.35;;;4.18;;
53549;SDS011;73079;52.914;-0.982;2023-12-20T00:34:57;16.80;;;3.30;;
53549;SDS011;73079;52.914;-0.982;2023-12-20T00:37:23;12.35;;;3.90;;
53549;SDS011;73079;52.914;-0.982;2023-12-20T00:39:50;14.25;;;3.60;;
53549;SDS011;73079;52.914;-0.982;2023-12-20T00:42:16;18.38;;;3.97;;
53549;SDS011;73079;52.914;-0.982;2023-12-20T00:44:42;14.13;;;3.60;;
53549;SDS011;73079;52.914;-0.982;2023-12-20T00:47:08;12.07;;;3.67;;
53549;SDS011;73079;52.914;-0.982;2023-12-20T00:49:33;14.57;;;4.40;;
53549;SDS011;73079;52.914;-0.982;2023-12-20T00:51:59;10.82;;;4.03;;
53549;SDS011;73079;52.914;-0.982;2023-12-20T00:54:25;19.55;;;4.57;;
53549;SDS011;73079;52.914;-0.982;2023-12-20T00:56:52;13.32;;;3.35;;
53549;SDS011;73079;52.914;-0.982;2023-12-20T00:59:18;10.73;;;3.67;;
53549;SDS011;73079;52.914;-0.982;2023-12-20T01:01:44;17.50;;;3.97;;
53549;SDS011;73079;52.914;-0.982;2023-12-20T01:04:10;15.90;;;4.32;;
53549;SDS011;73079;52.914;-0.982;2023-12-20T01:06:36;16.58;;;3.38;;
53549;SDS011;73079;52.914;-0.982;2023-12-20T01:09:01;10.80;;;3.53;;
53549;SDS011;73079;52.914;-0.982;2023-12-20T01:11:28;13.05;;;3.55;;
53549;SDS011;73079;52.914;-0.982;2023-12-20T01:13:55;15.27;;;3.22;;
53549;SDS011;73079;52.914;-0.982;2023-12-20T01:16:21;13.77;;;3.10;;
53549;SDS011;73079;52.914;-0.982;2023-12-20T01:18:47;16.02;;;3.58;;
53549;SDS011;73079;52.914;-0.982;2023-12-20T01:21:13;12.73;;;3.88;;
53549;SDS011;73079;52.914;-0.982;2023-12-20T01:23:38;12.45;;;3.47;;
53549;SDS011;73079;52.914;-0.982;2023-12-20T01:26:04;12.60;;;3.53;;
53549;SDS011;73079;52.914;-0.982;2023-12-20T01:28:30;12.73;;;3.30;;
53549;SDS011;73079;52.914;-0.982;2023-12-20T01:30:58;12.30;;;3.65;;
53549;SDS011;73079;52.914;-0.982;2023-12-20T01:33:23;17.13;;;3.35;;
53549;SDS011;73079;52.914;-0.982;2023-12-20T01:35:49;14.55;;;3.38;;
53549;SDS011;73079;52.914;-0.982;2023-12-20T01:38:15;13.95;;;3.55;;
53549;SDS011;73079;52.914;-0.982;2023-12-20T01:40:43;13.25;;;2.67;;
53549;SDS011;73079;52.914;-0.982;2023-12-20T01:43:09;9.13;;;2.80;;
53549;SDS011;73079;52.914;-0.982;2023-12-20T01:45:37;13.13;;;4.03;;
53549;SDS011;73079;52.914;-0.982;2023-12-20T01:48:05;15.10;;;3.50;;
53549;SDS011;73079;52.914;-0.982;2023-12-20T01:50:31;17.88;;;3.80;;
53549;SDS011;73079;52.914;-0.982;2023-12-20T01:53:01;14.93;;;2.90;;
53549;SDS011;73079;52.914;-0.982;2023-12-20T01:55:29;13.68;;;3.22;;
53549;SDS011;73079;52.914;-0.982;2023-12-20T01:57:58;16.75;;;4.03;;
53549;SDS011;73079;52.914;-0.982;2023-12-20T02:00:24;11.70;;;2.90;;
53549;SDS011;73079;52.914;-0.982;2023-12-20T02:02:53;9.88;;;3.20;;
53549;SDS011;73079;52.914;-0.982;2023-12-20T02:05:21;12.98;;;2.95;;
53549;SDS011;73079;52.914;-0.982;2023-12-20T02:07:47;15.85;;;3.22;;
53549;SDS011;73079;52.914;-0.982;2023-12-20T02:10:13;17.27;;;4.82;;
53549;SDS011;73079;52.914;-0.982;2023-12-20T02:12:39;10.32;;;2.80;;
53549;SDS011;73079;52.914;-0.982;2023-12-20T02:15:05;13.73;;;3.10;;
53549;SDS011;73079;52.914;-0.982;2023-12-20T02:17:32;13.02;;;3.53;;
53549;SDS011;73079;52.914;-0.982;2023-12-20T02:19:58;11.75;;;3.35;;
53549;SDS011;73079;52.914;-0.982;2023-12-20T02:22:26;15.05;;;3.40;;
53549;SDS011;73079;52.914;-0.982;2023-12-20T02:24:51;14.35;;;3.33;;
53549;SDS011;73079;52.914;-0.982;2023-12-20T02:27:17;14.63;;;3.47;;
53549;SDS011;73079;52.914;-0.982;2023-12-20T02:29:44;14.43;;;3.30;;
53549;SDS011;73079;52.914;-0.982;2023-12-20T02:32:12;13.18;;;3.70;;
53549;SDS011;73079;52.914;-0.982;2023-12-20T02:34:38;15.60;;;3.55;;
53549;SDS011;73079;52.914;-0.982;2023-12-20T02:37:04;13.07;;;3.65;;
53549;SDS011;73079;52.914;-0.982;2023-12-20T02:39:31;12.10;;;3.47;;
53549;SDS011;73079;52.914;-0.982;2023-12-20T02:41:58;14.90;;;3.20;;
53549;SDS011;73079;52.914;-0.982;2023-12-20T02:44:24;14.38;;;2.88;;
53549;SDS011;73079;52.914;-0.982;2023-12-20T02:46:50;11.02;;;3.20;;
53549;SDS011;73079;52.914;-0.982;2023-12-20T02:49:16;13.48;;;3.30;;
53549;SDS011;73079;52.914;-0.982;2023-12-20T02:51:42;12.80;;;2.83;;
53549;SDS011;73079;52.914;-0.982;2023-12-20T02:54:08;16.45;;;3.20;;
53549;SDS011;73079;52.914;-0.982;2023-12-20T02:56:35;16.98;;;3.67;;
53549;SDS011;73079;52.914;-0.982;2023-12-20T02:59:02;18.25;;;3.53;;
53549;SDS011;73079;52.914;-0.982;2023-12-20T03:01:30;15.93;;;3.30;;
53549;SDS011;73079;52.914;-0.982;2023-12-20T03:03:57;13.95;;;3.40;;
53549;SDS011;73079;52.914;-0.982;2023-12-20T03:06:25;13.38;;;2.97;;
53549;SDS011;73079;52.914;-0.982;2023-12-20T03:08:54;15.48;;;3.97;;
53549;SDS011;73079;52.914;-0.982;2023-12-20T03:11:26;10.63;;;2.88;;
53549;SDS011;73079;52.914;-0.982;2023-12-20T03:13:59;15.95;;;3.85;;
53549;SDS011;73079;52.914;-0.982;2023-12-20T03:16:27;13.18;;;3.42;;
53549;SDS011;73079;52.914;-0.982;2023-12-20T03:18:54;11.80;;;2.75;;
53549;SDS011;73079;52.914;-0.982;2023-12-20T03:21:22;13.65;;;3.30;;
53549;SDS011;73079;52.914;-0.982;2023-12-20T03:23:49;8.98;;;2.63;;
53549;SDS011;73079;52.914;-0.982;2023-12-20T03:26:15;16.42;;;3.42;;
53549;SDS011;73079;52.914;-0.982;2023-12-20T03:28:41;14.23;;;3.10;;
53549;SDS011;73079;52.914;-0.982;2023-12-20T03:31:08;14.02;;;3.40;;
53549;SDS011;73079;52.914;-0.982;2023-12-20T03:33:34;18.77;;;4.10;;
53549;SDS011;73079;52.914;-0.982;2023-12-20T03:36:00;12.90;;;2.70;;
53549;SDS011;73079;52.914;-0.982;2023-12-20T03:38:26;12.15;;;2.78;;
53549;SDS011;73079;52.914;-0.982;2023-12-20T03:40:52;13.82;;;3.33;;
53549;SDS011;73079;52.914;-0.982;2023-12-20T03:43:18;9.45;;;2.92;;
53549;SDS011;73079;52.914;-0.982;2023-12-20T03:45:44;12.98;;;2.80;;
53549;SDS011;73079;52.914;-0.982;2023-12-20T03:48:12;14.38;;;3.10;;
53549;SDS011;73079;52.914;-0.982;2023-12-20T03:50:38;12.98;;;3.13;;
53549;SDS011;73079;52.914;-0.982;2023-12-20T03:53:03;9.85;;;2.88;;
53549;SDS011;73079;52.914;-0.982;2023-12-20T03:55:29;13.85;;;3.28;;
53549;SDS011;73079;52.914;-0.982;2023-12-20T03:57:55;14.10;;;3.03;;
53549;SDS011;73079;52.914;-0.982;2023-12-20T04:00:21;14.93;;;3.17;;
53549;SDS011;73079;52.914;-0.982;2023-12-20T04:02:47;11.38;;;3.05;;
53549;SDS011;73079;52.914;-0.982;2023-12-20T04:05:14;17.83;;;4.13;;
53549;SDS011;73079;52.914;-0.982;2023-12-20T04:07:40;10.55;;;2.45;;
53549;SDS011;73079;52.914;-0.982;2023-12-20T04:10:05;13.35;;;4.00;;
53549;SDS011;73079;52.914;-0.982;2023-12-20T04:12:32;14.75;;;3.42;;
53549;SDS011;73079;52.914;-0.982;2023-12-20T04:14:58;9.20;;;2.33;;
53549;SDS011;73079;52.914;-0.982;2023-12-20T04:17:24;15.23;;;3.53;;
53549;SDS011;73079;52.914;-0.982;2023-12-20T04:19:50;13.43;;;3.60;;
53549;SDS011;73079;52.914;-0.982;2023-12-20T04:22:18;15.25;;;3.67;;
53549;SDS011;73079;52.914;-0.982;2023-12-20T04:24:44;11.07;;;3.35;;
53549;SDS011;73079;52.914;-0.982;2023-12-20T04:27:10;10.48;;;2.75;;
53549;SDS011;73079;52.914;-0.982;2023-12-20T04:29:36;9.40;;;2.63;;
53549;SDS011;73079;52.914;-0.982;2023-12-20T04:32:01;13.40;;;3.35;;
53549;SDS011;73079;52.914;-0.982;2023-12-20T04:34:27;12.13;;;3.45;;
53549;SDS011;73079;52.914;-0.982;2023-12-20T04:36:53;11.27;;;3.03;;
53549;SDS011;73079;52.914;-0.982;2023-12-20T04:39:20;20.45;;;3.45;;
53549;SDS011;73079;52.914;-0.982;2023-12-20T04:41:47;19.13;;;3.65;;
53549;SDS011;73079;52.914;-0.982;2023-12-20T04:44:15;15.63;;;3.45;;
53549;SDS011;73079;52.914;-0.982;2023-12-20T04:46:41;12.57;;;3.00;;
53549;SDS011;73079;52.914;-0.982;2023-12-20T04:49:07;13.20;;;3.45;;
53549;SDS011;73079;52.914;-0.982;2023-12-20T04:51:33;10.55;;;2.53;;
53549;SDS011;73079;52.914;-0.982;2023-12-20T04:53:59;13.38;;;3.25;;
53549;SDS011;73079;52.914;-0.982;2023-12-20T04:56:26;15.82;;;3.75;;
53549;SDS011;73079;52.914;-0.982;2023-12-20T04:58:52;11.82;;;3.05;;
53549;SDS011;73079;52.914;-0.982;2023-12-20T05:01:17;11.75;;;3.05;;
53549;SDS011;73079;52.914;-0.982;2023-12-20T05:03:43;13.75;;;3.15;;
53549;SDS011;73079;52.914;-0.982;2023-12-20T05:06:09;15.80;;;3.58;;
53549;SDS011;73079;52.914;-0.982;2023-12-20T05:08:35;12.45;;;3.33;;
53549;SDS011;73079;52.914;-0.982;2023-12-20T05:11:01;11.13;;;2.97;;
53549;SDS011;73079;52.914;-0.982;2023-12-20T05:13:29;14.88;;;3.40;;
53549;SDS011;73079;52.914;-0.982;2023-12-20T05:15:55;10.68;;;2.70;;
53549;SDS011;73079;52.914;-0.982;2023-12-20T05:18:21;15.07;;;3.15;;
53549;SDS011;73079;52.914;-0.982;2023-12-20T05:20:48;13.40;;;3.80;;
53549;SDS011;73079;52.914;-0.982;2023-12-20T05:23:14;12.10;;;3.53;;
53549;SDS011;73079;52.914;-0.982;2023-12-20T05:25:40;13.20;;;3.22;;
53549;SDS011;73079;52.914;-0.982;2023-12-20T05:28:06;9.27;;;2.83;;
53549;SDS011;73079;52.914;-0.982;2023-12-20T05:30:33;15.10;;;3.13;;
53549;SDS011;73079;52.914;-0.982;2023-12-20T05:32:59;11.25;;;3.05;;
53549;SDS011;73079;52.914;-0.982;2023-12-20T05:35:28;16.45;;;3.45;;
53549;SDS011;73079;52.914;-0.982;2023-12-20T05:37:54;10.23;;;3.03;;
53549;SDS011;73079;52.914;-0.982;2023-12-20T05:40:20;14.23;;;3.75;;
53549;SDS011;73079;52.914;-0.982;2023-12-20T05:42:46;13.80;;;3.10;;
53549;SDS011;73079;52.914;-0.982;2023-12-20T05:45:14;14.93;;;3.25;;
53549;SDS011;73079;52.914;-0.982;2023-12-20T05:47:41;14.55;;;3.33;;
53549;SDS011;73079;52.914;-0.982;2023-12-20T05:50:08;13.25;;;3.03;;
53549;SDS011;73079;52.914;-0.982;2023-12-20T05:52:34;12.18;;;2.88;;
53549;SDS011;73079;52.914;-0.982;2023-12-20T05:55:00;14.38;;;3.13;;
53549;SDS011;73079;52.914;-0.982;2023-12-20T05:57:26;10.13;;;2.95;;
53549;SDS011;73079;52.914;-0.982;2023-12-20T05:59:52;13.27;;;3.35;;
53549;SDS011;73079;52.914;-0.982;2023-12-20T06:02:18;17.58;;;3.05;;
53549;SDS011;73079;52.914;-0.982;2023-12-20T06:04:45;13.52;;;3.25;;
53549;SDS011;73079;52.914;-0.982;2023-12-20T06:07:12;13.70;;;2.90;;
53549;SDS011;73079;52.914;-0.982;2023-12-20T06:09:38;8.80;;;2.30;;
53549;SDS011;73079;52.914;-0.982;2023-12-20T06:12:05;16.05;;;2.80;;
53549;SDS011;73079;52.914;-0.982;2023-12-20T06:14:31;11.48;;;2.55;;
53549;SDS011;73079;52.914;-0.982;2023-12-20T06:16:57;11.07;;;2.92;;
53549;SDS011;73079;52.914;-0.982;2023-12-20T06:19:23;9.98;;;2.88;;
53549;SDS011;73079;52.914;-0.982;2023-12-20T06:21:50;14.13;;;2.83;;
53549;SDS011;73079;52.914;-0.982;2023-12-20T06:24:16;11.15;;;2.78;;
53549;SDS011;73079;52.914;-0.982;2023-12-20T06:26:42;16.05;;;3.13;;
53549;SDS011;73079;52.914;-0.982;2023-12-20T06:29:08;14.52;;;3.05;;
53549;SDS011;73079;52.914;-0.982;2023-12-20T06:31:34;10.27;;;2.75;;
53549;SDS011;73079;52.914;-0.982;2023-12-20T06:34:00;16.42;;;3.30;;
53549;SDS011;73079;52.914;-0.982;2023-12-20T06:36:26;10.35;;;2.83;;
53549;SDS011;73079;52.914;-0.982;2023-12-20T06:38:54;12.30;;;3.08;;
53549;SDS011;73079;52.914;-0.982;2023-12-20T06:41:20;16.60;;;3.47;;
53549;SDS011;73079;52.914;-0.982;2023-12-20T06:43:46;14.07;;;2.63;;
53549;SDS011;73079;52.914;-0.982;2023-12-20T06:46:12;13.18;;;3.35;;
53549;SDS011;73079;52.914;-0.982;2023-12-20T06:48:38;14.73;;;3.17;;
53549;SDS011;73079;52.914;-0.982;2023-12-20T06:51:10;13.25;;;2.70;;
53549;SDS011;73079;52.914;-0.982;2023-12-20T06:53:37;14.18;;;2.95;;
53549;SDS011;73079;52.914;-0.982;2023-12-20T06:56:05;10.77;;;2.58;;
53549;SDS011;73079;52.914;-0.982;2023-12-20T06:58:32;12.70;;;3.08;;
53549;SDS011;73079;52.914;-0.982;2023-12-20T07:00:58;13.05;;;2.63;;
53549;SDS011;73079;52.914;-0.982;2023-12-20T07:03:24;12.75;;;3.20;;
53549;SDS011;73079;52.914;-0.982;2023-12-20T07:05:50;11.75;;;2.70;;
53549;SDS011;73079;52.914;-0.982;2023-12-20T07:08:16;12.25;;;2.70;;
53549;SDS011;73079;52.914;-0.982;2023-12-20T07:10:42;10.88;;;3.08;;
53549;SDS011;73079;52.914;-0.982;2023-12-20T07:13:09;9.27;;;2.67;;
53549;SDS011;73079;52.914;-0.982;2023-12-20T07:15:36;16.85;;;3.58;;
53549;SDS011;73079;52.914;-0.982;2023-12-20T07:18:02;12.63;;;2.85;;
53549;SDS011;73079;52.914;-0.982;2023-12-20T07:20:29;13.07;;;3.33;;
53549;SDS011;73079;52.914;-0.982;2023-12-20T07:22:54;15.25;;;3.55;;
53549;SDS011;73079;52.914;-0.982;2023-12-20T07:25:20;15.82;;;3.42;;
53549;SDS011;73079;52.914;-0.982;2023-12-20T07:27:46;12.38;;;2.70;;
53549;SDS011;73079;52.914;-0.982;2023-12-20T07:30:13;16.35;;;3.97;;
53549;SDS011;73079;52.914;-0.982;2023-12-20T07:32:39;14.95;;;3.33;;
53549;SDS011;73079;52.914;-0.982;2023-12-20T07:35:05;11.82;;;3.17;;
53549;SDS011;73079;52.914;-0.982;2023-12-20T07:37:32;11.73;;;2.97;;
53549;SDS011;73079;52.914;-0.982;2023-12-20T07:39:57;11.85;;;2.90;;
53549;SDS011;73079;52.914;-0.982;2023-12-20T07:42:23;12.05;;;2.92;;
53549;SDS011;73079;52.914;-0.982;2023-12-20T07:44:49;15.52;;;3.15;;
53549;SDS011;73079;52.914;-0.982;2023-12-20T07:47:16;12.85;;;3.00;;
53549;SDS011;73079;52.914;-0.982;2023-12-20T07:49:46;12.35;;;2.95;;
53549;SDS011;73079;52.914;-0.982;2023-12-20T07:52:12;15.85;;;3.15;;
53549;SDS011;73079;52.914;-0.982;2023-12-20T07:54:38;11.93;;;3.05;;
53549;SDS011;73079;52.914;-0.982;2023-12-20T07:57:05;10.35;;;2.80;;
53549;SDS011;73079;52.914;-0.982;2023-12-20T07:59:31;12.73;;;2.80;;
53549;SDS011;73079;52.914;-0.982;2023-12-20T08:01:57;16.55;;;2.78;;
53549;SDS011;73079;52.914;-0.982;2023-12-20T08:04:24;18.45;;;3.58;;
53549;SDS011;73079;52.914;-0.982;2023-12-20T08:06:50;11.30;;;2.63;;
53549;SDS011;73079;52.914;-0.982;2023-12-20T08:09:16;11.88;;;3.00;;
53549;SDS011;73079;52.914;-0.982;2023-12-20T08:11:44;9.07;;;2.13;;
53549;SDS011;73079;52.914;-0.982;2023-12-20T08:14:10;12.23;;;3.53;;
53549;SDS011;73079;52.914;-0.982;2023-12-20T08:16:36;11.02;;;2.63;;
53549;SDS011;73079;52.914;-0.982;2023-12-20T08:19:01;12.65;;;2.97;;
53549;SDS011;73079;52.914;-0.982;2023-12-20T08:21:29;10.63;;;2.72;;
53549;SDS011;73079;52.914;-0.982;2023-12-20T08:23:55;14.90;;;2.58;;
53549;SDS011;73079;52.914;-0.982;2023-12-20T08:26:21;12.30;;;3.25;;
53549;SDS011;73079;52.914;-0.982;2023-12-20T08:28:49;12.73;;;2.72;;
53549;SDS011;73079;52.914;-0.982;2023-12-20T08:31:16;10.55;;;2.97;;
53549;SDS011;73079;52.914;-0.982;2023-12-20T08:33:42;12.45;;;2.50;;
53549;SDS011;73079;52.914;-0.982;2023-12-20T08:36:08;10.70;;;2.13;;
53549;SDS011;73079;52.914;-0.982;2023-12-20T08:38:36;8.88;;;2.20;;
53549;SDS011;73079;52.914;-0.982;2023-12-20T08:41:02;11.45;;;2.60;;
53549;SDS011;73079;52.914;-0.982;2023-12-20T08:43:30;11.68;;;2.88;;
53549;SDS011;73079;52.914;-0.982;2023-12-20T08:45:56;11.77;;;2.50;;
53549;SDS011;73079;52.914;-0.982;2023-12-20T08:48:22;11.93;;;3.20;;
53549;SDS011;73079;52.914;-0.982;2023-12-20T08:50:47;12.65;;;2.67;;
53549;SDS011;73079;52.914;-0.982;2023-12-20T08:53:15;10.05;;;2.47;;
53549;SDS011;73079;52.914;-0.982;2023-12-20T08:55:43;8.85;;;2.10;;
53549;SDS011;73079;52.914;-0.982;2023-12-20T08:58:09;13.23;;;2.50;;
53549;SDS011;73079;52.914;-0.982;2023-12-20T09:00:35;11.10;;;2.90;;
53549;SDS011;73079;52.914;-0.982;2023-12-20T09:03:02;8.98;;;2.22;;
53549;SDS011;73079;52.914;-0.982;2023-12-20T09:05:28;11.80;;;2.58;;
53549;SDS011;73079;52.914;-0.982;2023-12-20T09:07:54;8.13;;;2.22;;
53549;SDS011;73079;52.914;-0.982;2023-12-20T09:10:20;9.88;;;2.25;;
53549;SDS011;73079;52.914;-0.982;2023-12-20T09:12:50;9.98;;;2.50;;
53549;SDS011;73079;52.914;-0.982;2023-12-20T09:15:16;11.13;;;2.47;;
53549;SDS011;73079;52.914;-0.982;2023-12-20T09:17:42;12.43;;;2.67;;
53549;SDS011;73079;52.914;-0.982;2023-12-20T09:20:09;13.40;;;2.60;;
53549;SDS011;73079;52.914;-0.982;2023-12-20T09:22:35;11.35;;;2.63;;
53549;SDS011;73079;52.914;-0.982;2023-12-20T09:25:04;10.25;;;2.47;;
53549;SDS011;73079;52.914;-0.982;2023-12-20T09:27:30;10.65;;;2.75;;
53549;SDS011;73079;52.914;-0.982;2023-12-20T09:29:58;9.00;;;2.50;;
53549;SDS011;73079;52.914;-0.982;2023-12-20T09:32:23;10.80;;;3.03;;
53549;SDS011;73079;52.914;-0.982;2023-12-20T09:34:49;7.88;;;2.40;;
53549;SDS011;73079;52.914;-0.982;2023-12-20T09:37:15;7.85;;;2.22;;
53549;SDS011;73079;52.914;-0.982;2023-12-20T09:39:41;10.30;;;2.60;;
53549;SDS011;73079;52.914;-0.982;2023-12-20T09:42:06;11.80;;;2.45;;
53549;SDS011;73079;52.914;-0.982;2023-12-20T09:44:32;10.25;;;2.13;;
53549;SDS011;73079;52.914;-0.982;2023-12-20T09:47:03;10.43;;;3.25;;
53549;SDS011;73079;52.914;-0.982;2023-12-20T09:49:30;7.47;;;2.47;;
53549;SDS011;73079;52.914;-0.982;2023-12-20T09:51:57;10.95;;;2.72;;
53549;SDS011;73079;52.914;-0.982;2023-12-20T09:54:25;10.65;;;2.40;;
53549;SDS011;73079;52.914;-0.982;2023-12-20T09:56:53;10.40;;;2.20;;
53549;SDS011;73079;52.914;-0.982;2023-12-20T09:59:20;12.00;;;2.80;;
53549;SDS011;73079;52.914;-0.982;2023-12-20T10:01:45;12.80;;;2.55;;
53549;SDS011;73079;52.914;-0.982;2023-12-20T10:04:13;10.68;;;2.30;;
53549;SDS011;73079;52.914;-0.982;2023-12-20T10:06:39;9.02;;;2.42;;
53549;SDS011;73079;52.914;-0.982;2023-12-20T10:09:05;11.52;;;2.97;;
53549;SDS011;73079;52.914;-0.982;2023-12-20T10:11:31;7.60;;;2.70;;
53549;SDS011;73079;52.914;-0.982;2023-12-20T10:13:58;13.55;;;2.90;;
53549;SDS011;73079;52.914;-0.982;2023-12-20T10:16:26;9.73;;;2.42;;
53549;SDS011;73079;52.914;-0.982;2023-12-20T10:18:52;9.60;;;2.92;;
53549;SDS011;73079;52.914;-0.982;2023-12-20T10:21:20;9.43;;;2.33;;
53549;SDS011;73079;52.914;-0.982;2023-12-20T10:23:45;7.38;;;2.28;;
53549;SDS011;73079;52.914;-0.982;2023-12-20T10:26:15;6.95;;;2.20;;
53549;SDS011;73079;52.914;-0.982;2023-12-20T10:28:44;10.73;;;2.67;;
53549;SDS011;73079;52.914;-0.982;2023-12-20T10:31:10;8.13;;;2.15;;
53549;SDS011;73079;52.914;-0.982;2023-12-20T10:33:50;9.80;;;3.08;;
53549;SDS011;73079;52.914;-0.982;2023-12-20T10:36:16;12.13;;;2.58;;
53549;SDS011;73079;52.914;-0.982;2023-12-20T10:38:43;6.75;;;2.15;;
53549;SDS011;73079;52.914;-0.982;2023-12-20T10:41:11;15.23;;;3.08;;
53549;SDS011;73079;52.914;-0.982;2023-12-20T10:43:38;7.38;;;2.10;;
53549;SDS011;73079;52.914;-0.982;2023-12-20T10:46:05;11.35;;;2.65;;
53549;SDS011;73079;52.914;-0.982;2023-12-20T10:48:31;9.15;;;3.10;;
53549;SDS011;73079;52.914;-0.982;2023-12-20T10:50:57;10.75;;;2.72;;
53549;SDS011;73079;52.914;-0.982;2023-12-20T10:53:23;6.18;;;2.00;;
53549;SDS011;73079;52.914;-0.982;2023-12-20T10:55:51;9.82;;;2.72;;
53549;SDS011;73079;52.914;-0.982;2023-12-20T10:58:20;10.25;;;2.80;;
53549;SDS011;73079;52.914;-0.982;2023-12-20T11:00:49;10.73;;;2.97;;
53549;SDS011;73079;52.914;-0.982;2023-12-20T11:03:22;6.93;;;2.00;;
53549;SDS011;73079;52.914;-0.982;2023-12-20T11:05:50;10.38;;;2.65;;
53549;SDS011;73079;52.914;-0.982;2023-12-20T11:08:25;12.00;;;2.08;;
53549;SDS011;73079;52.914;-0.982;2023-12-20T11:10:59;11.50;;;2.65;;
53549;SDS011;73079;52.914;-0.982;2023-12-20T11:13:32;8.43;;;2.08;;
53549;SDS011;73079;52.914;-0.982;2023-12-20T11:16:01;7.93;;;2.25;;
53549;SDS011;73079;52.914;-0.982;2023-12-20T11:18:28;9.10;;;2.47;;
53549;SDS011;73079;52.914;-0.982;2023-12-20T11:20:55;15.45;;;2.50;;
53549;SDS011;73079;52.914;-0.982;2023-12-20T11:23:23;8.90;;;2.33;;
53549;SDS011;73079;52.914;-0.982;2023-12-20T11:25:52;8.15;;;2.38;;
53549;SDS011;73079;52.914;-0.982;2023-12-20T11:28:22;10.43;;;2.67;;
53549;SDS011;73079;52.914;-0.982;2023-12-20T11:30:50;5.57;;;1.63;;
53549;SDS011;73079;52.914;-0.982;2023-12-20T11:33:17;6.57;;;2.10;;
53549;SDS011;73079;52.914;-0.982;2023-12-20T11:35:47;5.95;;;2.08;;
53549;SDS011;73079;52.914;-0.982;2023-12-20T11:38:13;4.75;;;1.85;;
53549;SDS011;73079;52.914;-0.982;2023-12-20T11:40:40;7.40;;;2.22;;
53549;SDS011;73079;52.914;-0.982;2023-12-20T11:43:07;6.43;;;1.50;;
53549;SDS011;73079;52.914;-0.982;2023-12-20T11:45:34;5.35;;;2.22;;
53549;SDS011;73079;52.914;-0.982;2023-12-20T11:48:00;6.68;;;2.30;;
53549;SDS011;73079;52.914;-0.982;2023-12-20T11:50:27;7.00;;;2.50;;
53549;SDS011;73079;52.914;-0.982;2023-12-20T11:52:55;10.57;;;2.05;;
53549;SDS011;73079;52.914;-0.982;2023-12-20T11:55:21;6.70;;;2.10;;
53549;SDS011;73079;52.914;-0.982;2023-12-20T11:57:46;4.95;;;1.50;;
53549;SDS011;73079;52.914;-0.982;2023-12-20T12:00:13;5.38;;;1.70;;
53549;SDS011;73079;52.914;-0.982;2023-12-20T12:02:41;5.70;;;1.52;;
53549;SDS011;73079;52.914;-0.982;2023-12-20T12:05:07;3.65;;;1.27;;
53549;SDS011;73079;52.914;-0.982;2023-12-20T12:07:33;12.55;;;2.03;;
53549;SDS011;73079;52.914;-0.982;2023-12-20T12:09:59;5.35;;;1.80;;
53549;SDS011;73079;52.914;-0.982;2023-12-20T12:12:25;9.10;;;2.50;;
53549;SDS011;73079;52.914;-0.982;2023-12-20T12:14:52;6.10;;;1.90;;
53549;SDS011;73079;52.914;-0.982;2023-12-20T12:17:19;6.70;;;1.92;;
53549;SDS011;73079;52.914;-0.982;2023-12-20T12:19:46;5.10;;;1.88;;
53549;SDS011;73079;52.914;-0.982;2023-12-20T12:22:12;8.48;;;2.13;;
53549;SDS011;73079;52.914;-0.982;2023-12-20T12:24:40;5.93;;;2.10;;
53549;SDS011;73079;52.914;-0.982;2023-12-20T12:27:06;6.95;;;1.88;;
53549;SDS011;73079;52.914;-0.982;2023-12-20T12:29:33;8.80;;;2.53;;
53549;SDS011;73079;52.914;-0.982;2023-12-20T12:31:59;8.85;;;2.50;;
53549;SDS011;73079;52.914;-0.982;2023-12-20T12:34:26;7.88;;;2.03;;
53549;SDS011;73079;52.914;-0.982;2023-12-20T12:36:54;8.88;;;1.98;;
53549;SDS011;73079;52.914;-0.982;2023-12-20T12:39:20;7.07;;;2.25;;
53549;SDS011;73079;52.914;-0.982;2023-12-20T12:41:46;6.57;;;1.98;;
53549;SDS011;73079;52.914;-0.982;2023-12-20T12:44:12;13.05;;;1.80;;
53549;SDS011;73079;52.914;-0.982;2023-12-20T12:46:38;5.75;;;1.90;;
53549;SDS011;73079;52.914;-0.982;2023-12-20T12:49:04;7.03;;;2.00;;
53549;SDS011;73079;52.914;-0.982;2023-12-20T12:51:30;5.85;;;1.73;;
53549;SDS011;73079;52.914;-0.982;2023-12-20T12:53:58;7.18;;;2.17;;
53549;SDS011;73079;52.914;-0.982;2023-12-20T12:56:24;6.18;;;1.98;;
53549;SDS011;73079;52.914;-0.982;2023-12-20T12:58:49;6.95;;;1.83;;
53549;SDS011;73079;52.914;-0.982;2023-12-20T13:01:15;5.75;;;2.13;;
53549;SDS011;73079;52.914;-0.982;2023-12-20T13:03:41;8.95;;;2.08;;
53549;SDS011;73079;52.914;-0.982;2023-12-20T13:06:07;5.40;;;1.50;;
53549;SDS011;73079;52.914;-0.982;2023-12-20T13:08:34;6.25;;;1.90;;
53549;SDS011;73079;52.914;-0.982;2023-12-20T13:11:01;3.33;;;1.38;;
53549;SDS011;73079;52.914;-0.982;2023-12-20T13:13:29;5.55;;;1.90;;
53549;SDS011;73079;52.914;-0.982;2023-12-20T13:15:55;6.78;;;2.05;;
53549;SDS011;73079;52.914;-0.982;2023-12-20T13:18:21;4.60;;;1.67;;
53549;SDS011;73079;52.914;-0.982;2023-12-20T13:20:46;4.25;;;1.50;;
53549;SDS011;73079;52.914;-0.982;2023-12-20T13:23:13;5.85;;;1.98;;
53549;SDS011;73079;52.914;-0.982;2023-12-20T13:25:39;4.00;;;1.85;;
53549;SDS011;73079;52.914;-0.982;2023-12-20T13:28:06;4.65;;;1.60;;
53549;SDS011;73079;52.914;-0.982;2023-12-20T13:30:33;6.65;;;1.55;;
53549;SDS011;73079;52.914;-0.982;2023-12-20T13:32:59;6.45;;;1.55;;
53549;SDS011;73079;52.914;-0.982;2023-12-20T13:35:25;3.15;;;1.30;;
53549;SDS011;73079;52.914;-0.982;2023-12-20T13:37:51;6.00;;;1.60;;
53549;SDS011;73079;52.914;-0.982;2023-12-20T13:40:17;3.53;;;1.33;;
53549;SDS011;73079;52.914;-0.982;2023-12-20T13:42:43;3.88;;;1.08;;
53549;SDS011;73079;52.914;-0.982;2023-12-20T13:45:12;4.40;;;1.45;;
53549;SDS011;73079;52.914;-0.982;2023-12-20T13:47:37;4.10;;;1.50;;
53549;SDS011;73079;52.914;-0.982;2023-12-20T13:50:04;4.88;;;1.88;;
53549;SDS011;73079;52.914;-0.982;2023-12-20T13:52:30;5.32;;;1.70;;
53549;SDS011;73079;52.914;-0.982;2023-12-20T13:54:56;5.55;;;1.70;;
53549;SDS011;73079;52.914;-0.982;2023-12-20T13:57:22;3.55;;;1.30;;
53549;SDS011;73079;52.914;-0.982;2023-12-20T13:59:48;4.43;;;1.70;;
53549;SDS011;73079;52.914;-0.982;2023-12-20T14:02:15;3.70;;;1.73;;
53549;SDS011;73079;52.914;-0.982;2023-12-20T14:04:41;7.93;;;1.95;;
53549;SDS011;73079;52.914;-0.982;2023-12-20T14:07:07;5.38;;;1.67;;
53549;SDS011;73079;52.914;-0.982;2023-12-20T14:09:34;5.05;;;1.63;;
53549;SDS011;73079;52.914;-0.982;2023-12-20T14:12:00;5.95;;;1.80;;
53549;SDS011;73079;52.914;-0.982;2023-12-20T14:14:26;4.22;;;1.35;;
53549;SDS011;73079;52.914;-0.982;2023-12-20T14:16:52;5.82;;;1.80;;
53549;SDS011;73079;52.914;-0.982;2023-12-20T14:19:19;5.75;;;2.17;;
53549;SDS011;73079;52.914;-0.982;2023-12-20T14:21:45;7.30;;;1.80;;